createdAt,value
2019-01-27T00:02:13.336Z,5.10
2019-01-27T00:04:41.819Z,5.60
2019-01-27T00:07:10.487Z,4.50
2019-01-27T00:09:39.391Z,5.15
2019-01-27T00:12:08.594Z,4.80
2019-01-27T00:14:37.178Z,4.55
2019-01-27T00:17:06.102Z,4.83
2019-01-27T00:19:34.598Z,4.37
2019-01-27T00:22:03.071Z,4.30
2019-01-27T00:24:31.515Z,4.17
2019-01-27T00:27:00.095Z,3.95
2019-01-27T00:29:28.575Z,3.55
2019-01-27T00:31:57.018Z,3.45
2019-01-27T00:34:25.526Z,2.80
2019-01-27T00:36:53.967Z,2.58
2019-01-27T00:39:22.423Z,2.72
2019-01-27T00:41:50.911Z,2.60
2019-01-27T00:44:19.461Z,2.25
2019-01-27T00:46:47.942Z,2.30
2019-01-27T00:49:16.625Z,2.90
2019-01-27T00:51:45.110Z,2.92
2019-01-27T00:54:13.526Z,3.80
2019-01-27T00:56:42.016Z,3.58
2019-01-27T00:59:10.463Z,2.87
2019-01-27T01:01:39.029Z,2.10
2019-01-27T01:04:07.515Z,2.00
2019-01-27T01:06:35.963Z,1.70
2019-01-27T01:09:07.751Z,1.52
2019-01-27T01:11:36.242Z,1.40
2019-01-27T01:14:04.699Z,2.10
2019-01-27T01:16:33.151Z,2.10
2019-01-27T01:19:01.679Z,1.85
2019-01-27T01:21:30.160Z,1.95
2019-01-27T01:23:58.620Z,1.60
2019-01-27T01:26:27.069Z,1.45
2019-01-27T01:28:55.517Z,2.40
2019-01-27T01:31:24.016Z,2.27
2019-01-27T01:33:52.469Z,2.40
2019-01-27T01:36:20.910Z,2.60
2019-01-27T01:38:49.451Z,2.50
2019-01-27T01:41:17.899Z,2.67
2019-01-27T01:43:46.612Z,3.30
2019-01-27T01:46:15.130Z,2.85
2019-01-27T01:48:43.677Z,3.50
2019-01-27T01:51:12.127Z,3.08
2019-01-27T01:53:41.330Z,3.37
2019-01-27T01:56:09.782Z,3.17
2019-01-27T01:58:38.234Z,3.83
2019-01-27T02:01:06.714Z,3.10
2019-01-27T02:03:35.261Z,3.02
2019-01-27T02:06:04.850Z,2.60
2019-01-27T02:08:33.295Z,2.35
2019-01-27T02:11:01.787Z,2.35
2019-01-27T02:13:30.235Z,2.90
2019-01-27T02:16:00.074Z,3.20
2019-01-27T02:18:28.563Z,3.45
2019-01-27T02:20:57.007Z,4.20
2019-01-27T02:23:25.455Z,5.40
2019-01-27T02:25:53.940Z,4.78
2019-01-27T02:28:22.382Z,3.35
2019-01-27T02:30:50.848Z,2.42
2019-01-27T02:33:19.327Z,2.80
2019-01-27T02:35:47.968Z,2.58
2019-01-27T02:38:16.458Z,2.10
2019-01-27T02:40:44.923Z,2.00
2019-01-27T02:43:13.371Z,1.95
2019-01-27T02:45:41.863Z,2.30
2019-01-27T02:48:10.378Z,2.60
2019-01-27T02:50:38.842Z,2.35
2019-01-27T02:53:07.751Z,2.20
2019-01-27T02:55:36.334Z,2.20
2019-01-27T02:58:04.815Z,2.35
2019-01-27T03:00:33.262Z,2.30
2019-01-27T03:03:01.758Z,2.65
2019-01-27T03:05:43.981Z,2.05
2019-01-27T03:08:33.313Z,2.70
2019-01-27T03:11:01.833Z,2.58
2019-01-27T03:13:30.369Z,3.08
2019-01-27T03:15:58.900Z,3.20
2019-01-27T03:18:27.307Z,3.87
2019-01-27T03:20:55.860Z,3.22
2019-01-27T03:23:25.159Z,2.90
2019-01-27T03:25:58.639Z,2.87
2019-01-27T03:31:12.558Z,2.40
2019-01-27T03:33:45.504Z,3.33
2019-01-27T03:36:13.985Z,3.15
2019-01-27T03:38:42.398Z,3.05
2019-01-27T03:41:10.947Z,3.87
2019-01-27T03:43:39.530Z,4.10
2019-01-27T03:46:08.012Z,4.05
2019-01-27T03:48:36.463Z,3.35
2019-01-27T03:51:04.911Z,3.65
2019-01-27T03:53:33.380Z,3.50
2019-01-27T03:56:01.937Z,3.00
2019-01-27T03:58:30.420Z,3.65
2019-01-27T04:00:58.871Z,3.83
2019-01-27T04:03:27.964Z,3.33
2019-01-27T04:05:56.406Z,3.15
2019-01-27T04:08:24.860Z,2.87
2019-01-27T04:10:53.437Z,3.35
2019-01-27T04:13:21.891Z,3.45
2019-01-27T04:15:50.335Z,4.12
2019-01-27T04:18:18.843Z,4.20
2019-01-27T04:20:47.308Z,3.70
2019-01-27T04:23:15.844Z,4.72
2019-01-27T04:25:44.429Z,4.55
2019-01-27T04:28:12.910Z,7.50
2019-01-27T04:30:41.389Z,7.37
2019-01-27T04:33:09.920Z,6.65
2019-01-27T04:35:38.364Z,5.45
2019-01-27T04:38:06.935Z,4.42
2019-01-27T04:40:35.446Z,5.37
2019-01-27T04:43:03.896Z,4.15
2019-01-27T04:45:33.914Z,4.83
2019-01-27T04:48:02.393Z,4.60
2019-01-27T04:50:30.838Z,6.08
2019-01-27T04:52:59.767Z,6.15
2019-01-27T04:55:28.760Z,6.97
2019-01-27T04:57:57.653Z,7.40
2019-01-27T05:00:28.797Z,9.23
2019-01-27T05:03:01.884Z,10.03
2019-01-27T05:05:30.810Z,10.75
2019-01-27T05:07:59.666Z,11.43
2019-01-27T05:10:28.557Z,16.60
2019-01-27T05:12:57.549Z,15.98
2019-01-27T05:15:28.079Z,15.05
2019-01-27T05:17:56.971Z,10.23
2019-01-27T05:20:25.860Z,12.78
2019-01-27T05:22:54.750Z,11.73
2019-01-27T05:25:23.748Z,7.83
2019-01-27T05:27:52.636Z,7.25
2019-01-27T05:30:24.112Z,4.40
2019-01-27T05:32:53.079Z,6.25
2019-01-27T05:35:21.969Z,5.55
2019-01-27T05:37:50.860Z,5.53
2019-01-27T05:40:21.559Z,4.30
2019-01-27T05:42:50.488Z,5.10
2019-01-27T05:45:23.780Z,4.65
2019-01-27T05:47:53.493Z,5.50
2019-01-27T05:50:24.476Z,5.05
2019-01-27T05:52:53.422Z,6.53
2019-01-27T05:55:23.072Z,6.87
2019-01-27T05:57:52.023Z,5.62
2019-01-27T06:00:42.683Z,5.30
2019-01-27T06:03:12.355Z,4.55
2019-01-27T06:05:41.222Z,4.03
2019-01-27T06:08:10.215Z,4.70
2019-01-27T06:10:39.207Z,4.20
2019-01-27T06:13:08.099Z,4.12
2019-01-27T06:15:36.992Z,5.20
2019-01-27T06:18:05.983Z,6.08
2019-01-27T06:20:34.873Z,4.80
2019-01-27T06:23:03.767Z,4.35
2019-01-27T06:25:32.760Z,4.55
2019-01-27T06:28:01.650Z,5.03
2019-01-27T06:30:30.540Z,7.47
2019-01-27T06:33:17.351Z,6.95
2019-01-27T06:35:46.241Z,5.45
2019-01-27T06:38:15.123Z,5.10
2019-01-27T06:40:44.125Z,12.53
2019-01-27T06:43:13.017Z,12.00
2019-01-27T06:45:41.892Z,8.45
2019-01-27T06:48:10.836Z,7.90
2019-01-27T06:50:39.896Z,11.48
2019-01-27T06:53:08.993Z,28.67
2019-01-27T06:55:38.700Z,16.37
2019-01-27T06:58:07.887Z,18.12
2019-01-27T07:00:50.406Z,21.07
2019-01-27T07:03:23.802Z,22.30
2019-01-27T07:05:57.608Z,23.22
2019-01-27T07:08:28.137Z,22.58
2019-01-27T07:11:13.716Z,24.27
2019-01-27T07:14:01.964Z,26.07
2019-01-27T07:16:35.515Z,27.82
2019-01-27T07:19:08.866Z,29.82
2019-01-27T07:21:45.073Z,29.50
2019-01-27T07:24:15.483Z,30.30
2019-01-27T07:27:03.900Z,31.60
2019-01-27T07:29:34.425Z,33.83
2019-01-27T07:32:05.263Z,32.20
2019-01-27T07:34:52.174Z,34.58
2019-01-27T07:37:22.703Z,34.10
2019-01-27T07:40:09.822Z,35.28
2019-01-27T07:42:43.320Z,33.83
2019-01-27T07:45:15.415Z,37.23
2019-01-27T07:48:03.119Z,77.25
2019-01-27T07:50:36.114Z,59.60
2019-01-27T07:53:19.575Z,39.63
2019-01-27T07:55:53.139Z,42.73
2019-01-27T07:58:29.813Z,43.87
2019-01-27T08:01:04.030Z,58.90
2019-01-27T08:03:46.725Z,38.67
2019-01-27T08:06:17.169Z,41.23
2019-01-27T08:08:51.345Z,37.30
2019-01-27T08:11:37.944Z,33.60
2019-01-27T08:14:17.614Z,38.70
2019-01-27T08:16:48.125Z,42.85
2019-01-27T08:19:21.042Z,42.38
2019-01-27T08:21:54.616Z,39.18
2019-01-27T08:24:25.233Z,35.88
2019-01-27T08:27:07.709Z,35.83
2019-01-27T08:29:38.114Z,39.70
2019-01-27T08:32:14.628Z,36.10
2019-01-27T08:34:51.017Z,37.98
2019-01-27T08:37:30.484Z,37.00
2019-01-27T08:40:12.993Z,38.08
2019-01-27T08:43:01.700Z,33.63
2019-01-27T08:45:47.400Z,33.90
2019-01-27T08:48:16.376Z,36.77
2019-01-27T08:50:45.317Z,36.85
2019-01-27T08:53:14.160Z,37.67
2019-01-27T08:55:43.040Z,34.48
2019-01-27T08:58:12.030Z,36.10
2019-01-27T09:00:41.602Z,35.10
2019-01-27T09:03:12.132Z,35.75
2019-01-27T09:05:51.608Z,33.33
2019-01-27T09:08:22.102Z,35.90
2019-01-27T09:10:52.548Z,35.43
2019-01-27T09:13:31.500Z,33.63
2019-01-27T09:16:08.059Z,32.10
2019-01-27T09:18:41.187Z,33.05
2019-01-27T09:21:20.119Z,33.50
2019-01-27T09:23:53.533Z,31.60
2019-01-27T09:26:29.711Z,36.50
2019-01-27T09:29:00.121Z,33.75
2019-01-27T09:31:30.576Z,32.63
2019-01-27T09:34:13.415Z,31.65
2019-01-27T09:36:46.325Z,33.90
2019-01-27T09:39:22.014Z,33.40
2019-01-27T09:42:06.896Z,33.98
2019-01-27T09:44:36.959Z,33.73
2019-01-27T09:47:13.220Z,33.05
2019-01-27T09:49:43.271Z,34.08
2019-01-27T09:52:19.261Z,32.25
2019-01-27T09:54:49.312Z,35.25
2019-01-27T09:57:19.331Z,34.40
2019-01-27T09:59:52.398Z,34.73
2019-01-27T10:02:34.954Z,36.10
2019-01-27T10:05:03.428Z,35.23
2019-01-27T10:07:49.933Z,34.75
2019-01-27T10:10:31.691Z,31.97
2019-01-27T10:13:10.800Z,33.13
2019-01-27T10:15:53.401Z,31.52
2019-01-27T10:18:29.448Z,32.75
2019-01-27T10:21:02.258Z,33.63
2019-01-27T10:23:41.839Z,33.75
2019-01-27T10:26:12.240Z,30.40
2019-01-27T10:28:45.678Z,30.65
2019-01-27T10:31:15.871Z,32.65
2019-01-27T10:34:02.399Z,40.40
2019-01-27T10:36:41.983Z,40.65
2019-01-27T10:39:18.831Z,57.00
2019-01-27T10:41:52.615Z,38.15
2019-01-27T10:44:39.670Z,54.60
2019-01-27T10:47:12.691Z,49.90
2019-01-27T10:49:48.559Z,48.15
2019-01-27T10:52:18.580Z,37.67
2019-01-27T10:54:48.772Z,35.83
2019-01-27T10:57:24.843Z,33.40
2019-01-27T10:59:57.309Z,36.33
2019-01-27T11:02:36.878Z,36.15
2019-01-27T11:05:09.091Z,34.83
2019-01-27T11:07:41.872Z,35.28
2019-01-27T11:10:15.047Z,32.83
2019-01-27T11:12:53.754Z,33.95
2019-01-27T11:15:23.774Z,41.25
2019-01-27T11:17:56.503Z,33.88
2019-01-27T11:20:41.455Z,33.73
2019-01-27T11:23:11.470Z,33.15
2019-01-27T11:26:00.715Z,32.60
2019-01-27T11:28:29.447Z,33.83
2019-01-27T11:30:59.466Z,35.03
2019-01-27T11:33:35.278Z,33.15
2019-01-27T11:36:05.470Z,34.27
2019-01-27T11:38:35.503Z,31.48
2019-01-27T11:41:08.847Z,32.38
2019-01-27T11:43:54.950Z,34.78
2019-01-27T11:46:25.008Z,33.58
2019-01-27T11:48:55.031Z,34.45
2019-01-27T11:51:25.055Z,33.30
2019-01-27T11:53:53.541Z,32.42
2019-01-27T11:56:21.991Z,35.20
2019-01-27T11:58:50.443Z,32.73
2019-01-27T12:01:18.930Z,34.27
2019-01-27T12:03:47.377Z,33.45
2019-01-27T12:06:15.838Z,34.35
2019-01-27T12:08:44.428Z,34.45
2019-01-27T12:11:12.880Z,34.55
2019-01-27T12:13:41.371Z,35.30
2019-01-27T12:16:09.823Z,33.78
2019-01-27T12:18:38.353Z,34.15
2019-01-27T12:21:06.908Z,34.63
2019-01-27T12:23:35.360Z,32.45
2019-01-27T12:26:04.512Z,37.28
2019-01-27T12:28:33.098Z,35.83
2019-01-27T12:31:01.578Z,35.63
2019-01-27T12:33:30.015Z,37.55
2019-01-27T12:35:58.679Z,35.20
2019-01-27T12:38:27.135Z,36.85
2019-01-27T12:40:55.595Z,37.83
2019-01-27T12:43:24.090Z,36.00
2019-01-27T12:45:52.541Z,36.42
2019-01-27T12:48:21.049Z,39.60
2019-01-27T12:50:49.479Z,36.00
2019-01-27T12:53:18.012Z,34.65
2019-01-27T12:55:46.495Z,37.83
2019-01-27T12:58:15.793Z,37.23
2019-01-27T13:00:45.801Z,51.15
2019-01-27T13:03:14.278Z,42.23
2019-01-27T13:05:44.917Z,36.10
2019-01-27T13:08:13.698Z,40.12
2019-01-27T13:10:43.384Z,35.75
2019-01-27T13:13:12.172Z,36.23
2019-01-27T13:15:40.747Z,36.80
2019-01-27T13:18:09.288Z,35.55
2019-01-27T13:20:37.693Z,36.93
2019-01-27T13:23:06.338Z,36.58
2019-01-27T13:25:35.231Z,38.17
2019-01-27T13:28:03.866Z,38.60
2019-01-27T13:30:32.436Z,38.65
2019-01-27T13:33:03.332Z,38.60
2019-01-27T13:35:31.332Z,37.35
2019-01-27T13:37:59.822Z,35.55
2019-01-27T13:40:28.267Z,35.23
2019-01-27T13:42:56.934Z,36.88
2019-01-27T13:45:29.323Z,37.42
2019-01-27T13:47:59.167Z,37.40
2019-01-27T13:50:28.265Z,35.95
2019-01-27T13:52:57.016Z,35.83
2019-01-27T13:55:29.693Z,36.75
2019-01-27T13:57:58.243Z,36.50
2019-01-27T14:00:31.159Z,37.30
2019-01-27T14:02:59.594Z,37.45
2019-01-27T14:05:28.440Z,39.88
2019-01-27T14:07:57.119Z,37.10
2019-01-27T14:10:26.563Z,37.23
2019-01-27T14:12:55.214Z,38.55
2019-01-27T14:15:25.175Z,38.48
2019-01-27T14:17:53.673Z,41.00
2019-01-27T14:20:22.111Z,38.80
2019-01-27T14:22:50.662Z,39.73
2019-01-27T14:25:20.060Z,41.90
2019-01-27T14:27:48.607Z,54.05
2019-01-27T14:30:18.262Z,65.28
2019-01-27T14:32:46.846Z,40.40
2019-01-27T14:35:16.192Z,38.85
2019-01-27T14:37:44.644Z,38.98
2019-01-27T14:40:14.687Z,38.38
2019-01-27T14:42:43.543Z,38.55
2019-01-27T14:45:13.459Z,36.35
2019-01-27T14:47:42.350Z,36.03
2019-01-27T14:50:12.617Z,35.28
2019-01-27T14:52:41.267Z,38.78
2019-01-27T14:55:11.738Z,39.00
2019-01-27T14:57:40.279Z,40.38
2019-01-27T15:00:10.443Z,38.17
2019-01-27T15:02:39.522Z,36.80
2019-01-27T15:05:11.252Z,39.23
2019-01-27T15:07:40.380Z,38.33
2019-01-27T15:10:12.295Z,38.35
2019-01-27T15:12:41.256Z,36.30
2019-01-27T15:15:15.603Z,37.05
2019-01-27T15:17:44.675Z,38.95
2019-01-27T15:20:16.482Z,39.83
2019-01-27T15:22:45.460Z,36.08
2019-01-27T15:25:14.344Z,38.08
2019-01-27T15:27:43.185Z,40.60
2019-01-27T15:30:14.977Z,41.28
2019-01-27T15:32:43.853Z,41.98
2019-01-27T15:35:12.696Z,41.42
2019-01-27T15:37:42.239Z,39.85
2019-01-27T15:40:13.696Z,39.50
2019-01-27T15:42:42.724Z,42.98
2019-01-27T15:45:17.553Z,43.23
2019-01-27T15:47:47.160Z,41.45
2019-01-27T15:50:19.129Z,44.45
2019-01-27T15:52:48.667Z,42.25
2019-01-27T15:55:20.333Z,40.92
2019-01-27T15:57:50.712Z,39.90
2019-01-27T16:00:27.939Z,39.58
2019-01-27T16:02:58.312Z,41.90
2019-01-27T16:05:27.174Z,43.15
2019-01-27T16:07:56.104Z,41.35
2019-01-27T16:10:27.491Z,40.20
2019-01-27T16:12:57.545Z,40.05
2019-01-27T16:15:28.187Z,40.70
2019-01-27T16:17:57.176Z,39.88
2019-01-27T16:20:26.317Z,38.67
2019-01-27T16:22:56.864Z,38.85
2019-01-27T16:25:25.708Z,34.90
2019-01-27T16:27:54.547Z,38.28
2019-01-27T16:30:44.719Z,39.05
2019-01-27T16:33:15.833Z,40.25
2019-01-27T16:35:44.667Z,41.15
2019-01-27T16:38:13.556Z,40.10
2019-01-27T16:40:42.399Z,37.73
2019-01-27T16:43:10.863Z,41.45
2019-01-27T16:45:39.368Z,45.45
2019-01-27T16:48:07.827Z,46.37
2019-01-27T16:50:36.435Z,45.85
2019-01-27T16:53:05.207Z,49.23
2019-01-27T16:55:34.003Z,44.50
2019-01-27T16:58:02.899Z,45.48
2019-01-27T17:00:31.907Z,43.70
2019-01-27T17:03:00.771Z,44.35
2019-01-27T17:05:29.475Z,44.73
2019-01-27T17:07:57.919Z,44.60
2019-01-27T17:10:27.537Z,44.80
2019-01-27T17:12:56.008Z,43.65
2019-01-27T17:15:24.616Z,43.35
2019-01-27T17:17:53.122Z,42.85
2019-01-27T17:20:25.892Z,42.85
2019-01-27T17:22:52.638Z,42.95
2019-01-27T17:25:21.490Z,40.28
2019-01-27T17:27:50.521Z,40.15
2019-01-27T17:30:22.911Z,62.78
2019-01-27T17:32:52.283Z,51.37
2019-01-27T17:35:21.808Z,47.20
2019-01-27T17:37:50.699Z,43.08
2019-01-27T17:40:22.490Z,44.42
2019-01-27T17:42:51.682Z,42.43
2019-01-27T17:45:23.465Z,46.05
2019-01-27T17:47:53.922Z,51.90
2019-01-27T17:50:25.195Z,49.38
2019-01-27T17:52:54.230Z,54.45
2019-01-27T17:55:42.302Z,50.73
2019-01-27T17:58:27.781Z,41.77
2019-01-27T18:01:14.828Z,41.50
2019-01-27T18:03:47.990Z,40.45
2019-01-27T18:06:34.675Z,40.52
2019-01-27T18:09:22.893Z,41.37
2019-01-27T18:11:59.521Z,39.92
2019-01-27T18:14:29.975Z,40.45
2019-01-27T18:16:58.812Z,42.35
2019-01-27T18:19:27.721Z,40.05
2019-01-27T18:21:56.618Z,41.75
2019-01-27T18:24:25.508Z,43.25
2019-01-27T18:26:55.420Z,43.25
2019-01-27T18:29:24.307Z,47.65
2019-01-27T18:31:53.205Z,43.85
2019-01-27T18:34:22.093Z,47.23
2019-01-27T18:36:50.979Z,46.58
2019-01-27T18:39:19.977Z,48.50
2019-01-27T18:41:48.899Z,45.85
2019-01-27T18:44:17.751Z,47.23
2019-01-27T18:46:49.116Z,49.25
2019-01-27T18:49:18.102Z,49.75
2019-01-27T18:51:48.060Z,50.03
2019-01-27T18:54:36.920Z,49.77
2019-01-27T18:57:13.030Z,47.80
2019-01-27T18:59:46.011Z,47.13
2019-01-27T19:02:31.167Z,45.10
2019-01-27T19:05:03.703Z,52.90
2019-01-27T19:07:36.851Z,48.80
2019-01-27T19:10:08.380Z,49.95
2019-01-27T19:12:54.914Z,46.23
2019-01-27T19:15:44.853Z,43.92
2019-01-27T19:18:14.937Z,47.83
2019-01-27T19:20:54.366Z,44.27
2019-01-27T19:23:24.442Z,42.50
2019-01-27T19:26:03.248Z,44.48
2019-01-27T19:28:36.443Z,44.33
2019-01-27T19:31:06.505Z,44.40
2019-01-27T19:33:36.648Z,48.00
2019-01-27T19:36:23.537Z,54.90
2019-01-27T19:39:10.041Z,56.98
2019-01-27T19:41:43.033Z,51.58
2019-01-27T19:44:25.064Z,51.48
2019-01-27T19:46:58.202Z,44.67
2019-01-27T19:49:31.000Z,44.18
2019-01-27T19:52:01.222Z,42.88
2019-01-27T19:54:34.450Z,45.00
2019-01-27T19:57:04.515Z,44.70
2019-01-27T19:59:47.096Z,40.60
2019-01-27T20:02:29.347Z,40.80
2019-01-27T20:05:08.478Z,41.60
2019-01-27T20:07:55.059Z,42.03
2019-01-27T20:10:25.210Z,39.67
2019-01-27T20:12:55.231Z,43.83
2019-01-27T20:15:34.148Z,42.73
2019-01-27T20:18:19.246Z,40.48
2019-01-27T20:20:58.426Z,42.00
2019-01-27T20:23:28.878Z,42.30
2019-01-27T20:25:59.305Z,40.45
2019-01-27T20:28:48.163Z,41.20
2019-01-27T20:31:30.924Z,39.40
2019-01-27T20:34:17.629Z,39.70
2019-01-27T20:36:57.170Z,38.35
2019-01-27T20:39:30.358Z,39.27
2019-01-27T20:42:10.020Z,43.05
2019-01-27T20:44:55.798Z,41.83
2019-01-27T20:47:38.662Z,43.50
2019-01-27T20:50:14.602Z,45.67
2019-01-27T20:52:45.154Z,42.08
2019-01-27T20:55:21.622Z,43.42
2019-01-27T20:57:52.153Z,45.03
2019-01-27T21:00:38.654Z,52.15
2019-01-27T21:03:13.075Z,45.20
2019-01-27T21:05:52.820Z,48.33
2019-01-27T21:08:39.821Z,47.17
2019-01-27T21:11:19.730Z,49.38
2019-01-27T21:13:50.315Z,48.63
2019-01-27T21:16:27.605Z,49.77
2019-01-27T21:18:58.131Z,48.45
2019-01-27T21:21:27.137Z,50.63
2019-01-27T21:23:56.016Z,50.73
2019-01-27T21:26:24.905Z,49.98
2019-01-27T21:28:54.206Z,51.88
2019-01-27T21:31:22.789Z,55.65
2019-01-27T21:33:51.191Z,55.00
2019-01-27T21:36:19.644Z,58.10
2019-01-27T21:38:48.160Z,57.27
2019-01-27T21:41:16.712Z,52.75
2019-01-27T21:43:45.177Z,50.35
2019-01-27T21:46:13.776Z,51.35
2019-01-27T21:48:42.258Z,51.13
2019-01-27T21:51:10.670Z,50.00
2019-01-27T21:53:39.166Z,50.25
2019-01-27T21:56:07.700Z,49.20
2019-01-27T21:58:36.180Z,48.52
2019-01-27T22:01:05.096Z,48.58
2019-01-27T22:03:33.654Z,48.35
2019-01-27T22:06:02.105Z,48.48
2019-01-27T22:08:30.622Z,50.28
2019-01-27T22:10:59.099Z,47.23
2019-01-27T22:13:27.507Z,49.50
2019-01-27T22:15:55.998Z,47.62
2019-01-27T22:18:24.542Z,49.98
2019-01-27T22:20:53.006Z,46.23
2019-01-27T22:23:21.498Z,45.60
2019-01-27T22:25:49.946Z,48.70
2019-01-27T22:28:18.400Z,48.38
2019-01-27T22:30:46.954Z,45.50
2019-01-27T22:33:15.426Z,47.40
2019-01-27T22:35:44.001Z,44.18
2019-01-27T22:38:12.492Z,49.75
2019-01-27T22:40:40.910Z,47.27
2019-01-27T22:43:09.411Z,48.38
2019-01-27T22:45:37.935Z,46.08
2019-01-27T22:48:07.116Z,46.58
2019-01-27T22:50:35.601Z,50.63
2019-01-27T22:53:04.750Z,49.13
2019-01-27T22:55:33.201Z,46.33
2019-01-27T22:58:01.692Z,47.65
2019-01-27T23:00:49.611Z,48.95
2019-01-27T23:03:18.094Z,48.40
2019-01-27T23:05:46.551Z,49.53
2019-01-27T23:08:15.065Z,50.23
2019-01-27T23:10:43.519Z,48.83
2019-01-27T23:13:12.014Z,48.80
2019-01-27T23:15:40.476Z,51.80
2019-01-27T23:18:08.927Z,50.78
2019-01-27T23:20:37.461Z,52.38
2019-01-27T23:23:05.979Z,51.88
2019-01-27T23:25:34.431Z,49.67
2019-01-27T23:28:02.896Z,50.35
2019-01-27T23:30:31.487Z,51.33
2019-01-27T23:32:59.965Z,51.92
2019-01-27T23:35:28.446Z,52.67
2019-01-27T23:37:56.895Z,54.98
2019-01-27T23:40:25.415Z,51.30
2019-01-27T23:42:53.911Z,51.75
2019-01-27T23:45:22.473Z,51.13
2019-01-27T23:47:50.948Z,51.37
2019-01-27T23:50:19.538Z,55.38
2019-01-27T23:52:48.029Z,50.50
2019-01-27T23:55:16.481Z,52.53
2019-01-27T23:57:44.981Z,53.70
